createdAt,value
2023-04-02T00:00:09.884Z,1.27
2023-04-02T00:03:04.747Z,0.80
2023-04-02T00:05:51.666Z,1.10
2023-04-02T00:08:25.617Z,0.82
2023-04-02T00:11:01.890Z,0.50
2023-04-02T00:13:37.657Z,0.70
2023-04-02T00:16:08.156Z,0.47
2023-04-02T00:18:40.480Z,0.50
2023-04-02T00:21:14.333Z,0.43
2023-04-02T00:23:43.971Z,0.57
2023-04-02T00:26:38.615Z,0.65
2023-04-02T00:31:37.502Z,0.50
2023-04-02T00:34:04.929Z,0.60
2023-04-02T00:36:34.262Z,0.52
2023-04-02T00:39:04.830Z,0.75
2023-04-02T00:41:36.309Z,0.50
2023-04-02T00:44:03.797Z,0.57
2023-04-02T00:46:46.674Z,0.50
2023-04-02T00:49:35.396Z,0.45
2023-04-02T00:52:07.268Z,0.80
2023-04-02T00:54:42.624Z,0.60
2023-04-02T00:57:21.844Z,0.60
2023-04-02T00:59:57.111Z,0.90
2023-04-02T01:02:33.813Z,0.60
2023-04-02T01:05:23.268Z,0.50
2023-04-02T01:07:57.181Z,0.70
2023-04-02T01:10:39.124Z,0.80
2023-04-02T01:13:15.054Z,0.70
2023-04-02T01:15:51.048Z,0.65
2023-04-02T01:18:31.442Z,0.45
2023-04-02T01:21:30.480Z,0.75
2023-04-02T01:24:06.137Z,0.60
2023-04-02T01:26:57.669Z,0.43
2023-04-02T01:29:26.511Z,0.85
2023-04-02T01:31:55.985Z,0.55
2023-04-02T01:34:27.262Z,0.60
2023-04-02T01:37:27.429Z,0.80
2023-04-02T01:40:06.524Z,0.45
2023-04-02T01:42:53.653Z,0.50
2023-04-02T01:45:22.489Z,0.50
2023-04-02T01:47:50.023Z,0.65
2023-04-02T01:50:20.141Z,0.45
2023-04-02T01:52:50.479Z,0.57
2023-04-02T01:55:24.614Z,0.40
2023-04-02T01:57:54.378Z,0.57
2023-04-02T02:00:22.565Z,0.32
2023-04-02T02:02:51.583Z,0.70
2023-04-02T02:05:23.027Z,0.60
2023-04-02T02:07:51.129Z,0.63
2023-04-02T02:10:26.177Z,0.50
2023-04-02T02:12:53.237Z,0.57
2023-04-02T02:15:23.767Z,0.40
2023-04-02T02:17:54.745Z,0.65
2023-04-02T02:20:22.652Z,0.50
2023-04-02T02:22:51.448Z,0.60
2023-04-02T02:25:24.975Z,0.60
2023-04-02T02:28:24.060Z,0.63
2023-04-02T02:30:57.630Z,0.40
2023-04-02T02:33:32.686Z,0.60
2023-04-02T02:36:06.337Z,0.60
2023-04-02T02:38:54.896Z,0.63
2023-04-02T02:42:00.281Z,0.68
2023-04-02T02:44:35.260Z,0.70
2023-04-02T02:47:19.671Z,0.60
2023-04-02T02:49:51.361Z,0.75
2023-04-02T02:52:38.158Z,0.80
2023-04-02T02:55:08.171Z,0.70
2023-04-02T02:57:40.389Z,1.00
2023-04-02T03:00:11.653Z,1.02
2023-04-02T03:02:41.704Z,0.68
2023-04-02T03:05:09.179Z,0.82
2023-04-02T03:07:37.427Z,1.33
2023-04-02T03:10:25.093Z,0.80
2023-04-02T03:13:02.317Z,0.70
2023-04-02T03:15:38.832Z,0.73
2023-04-02T03:18:28.744Z,0.90
2023-04-02T03:21:16.703Z,1.40
2023-04-02T03:23:50.940Z,0.93
2023-04-02T03:26:40.742Z,1.02
2023-04-02T03:29:16.702Z,1.15
2023-04-02T03:32:02.309Z,0.80
2023-04-02T03:34:36.017Z,0.70
2023-04-02T03:37:21.270Z,1.17
2023-04-02T03:40:00.403Z,1.05
2023-04-02T03:42:37.164Z,0.90
2023-04-02T03:45:15.050Z,1.13
2023-04-02T03:48:33.793Z,1.10
2023-04-02T03:51:08.526Z,0.95
2023-04-02T03:53:35.377Z,1.38
2023-04-02T03:56:02.631Z,1.10
2023-04-02T03:58:42.994Z,0.90
2023-04-02T04:01:34.518Z,1.05
2023-04-02T04:04:13.456Z,1.02
2023-04-02T04:06:46.375Z,0.98
2023-04-02T04:09:31.909Z,1.35
2023-04-02T04:12:17.173Z,0.90
2023-04-02T04:14:52.442Z,1.25
2023-04-02T04:17:51.258Z,1.10
2023-04-02T04:20:24.080Z,0.93
2023-04-02T04:22:55.939Z,1.10
2023-04-02T04:25:34.038Z,1.10
2023-04-02T04:28:16.617Z,1.38
2023-04-02T04:30:52.859Z,1.10
2023-04-02T04:33:29.045Z,1.15
2023-04-02T04:35:59.331Z,1.15
2023-04-02T04:38:39.572Z,1.02
2023-04-02T04:41:16.850Z,1.23
2023-04-02T04:43:55.289Z,1.38
2023-04-02T04:46:41.337Z,1.25
2023-04-02T04:49:27.932Z,1.13
2023-04-02T04:52:15.395Z,1.10
2023-04-02T04:54:42.515Z,1.17
2023-04-02T04:57:39.158Z,0.90
2023-04-02T05:00:15.781Z,1.10
2023-04-02T05:02:53.665Z,1.20
2023-04-02T05:05:27.293Z,1.20
2023-04-02T05:08:00.898Z,1.48
2023-04-02T05:13:19.074Z,1.70
2023-04-02T05:15:56.178Z,1.40
2023-04-02T05:18:28.713Z,1.00
2023-04-02T05:21:07.847Z,1.03
2023-04-02T05:23:44.849Z,1.13
2023-04-02T05:26:37.852Z,1.35
2023-04-02T05:29:39.229Z,1.10
2023-04-02T05:32:21.193Z,1.08
2023-04-02T05:34:53.168Z,1.40
2023-04-02T05:37:23.153Z,1.38
2023-04-02T05:39:54.275Z,1.40
2023-04-02T05:42:28.191Z,1.10
2023-04-02T05:45:08.701Z,1.10
2023-04-02T05:47:41.224Z,1.17
2023-04-02T05:50:08.500Z,1.27
2023-04-02T05:52:57.302Z,1.40
2023-04-02T05:55:35.907Z,1.58
2023-04-02T05:58:34.709Z,1.30
2023-04-02T06:01:33.632Z,1.27
2023-04-02T06:04:22.021Z,1.17
2023-04-02T06:07:10.119Z,1.25
2023-04-02T06:09:51.963Z,1.00
2023-04-02T06:12:44.671Z,2.53
2023-04-02T06:15:23.668Z,1.20
2023-04-02T06:18:00.601Z,1.05
2023-04-02T06:20:28.581Z,1.00
2023-04-02T06:23:11.655Z,0.95
2023-04-02T06:25:48.400Z,1.00
2023-04-02T06:28:24.709Z,1.23
2023-04-02T06:30:56.277Z,0.90
2023-04-02T06:33:23.183Z,1.10
2023-04-02T06:35:51.803Z,0.93
2023-04-02T06:38:26.796Z,0.85
2023-04-02T06:41:02.041Z,0.95
2023-04-02T06:43:36.195Z,1.02
2023-04-02T06:46:11.165Z,1.08
2023-04-02T06:48:42.057Z,0.90
2023-04-02T06:51:12.945Z,1.10
2023-04-02T06:53:50.483Z,1.38
2023-04-02T06:56:29.724Z,0.85
2023-04-02T06:58:56.594Z,1.10
2023-04-02T07:01:29.173Z,1.27
2023-04-02T07:03:57.043Z,0.80
2023-04-02T07:06:24.112Z,0.80
2023-04-02T07:08:51.329Z,0.90
2023-04-02T07:11:21.908Z,1.35
2023-04-02T07:13:50.153Z,1.33
2023-04-02T07:16:25.368Z,0.90
2023-04-02T07:18:55.324Z,1.05
2023-04-02T07:21:22.752Z,0.80
2023-04-02T07:23:49.604Z,1.30
2023-04-02T07:26:20.296Z,1.33
2023-04-02T07:28:47.097Z,1.13
2023-04-02T07:31:19.999Z,0.90
2023-04-02T07:33:47.221Z,1.38
2023-04-02T07:36:20.089Z,1.10
2023-04-02T07:38:47.694Z,1.50
2023-04-02T07:41:15.627Z,1.15
2023-04-02T07:43:42.876Z,1.33
2023-04-02T07:46:10.860Z,1.48
2023-04-02T07:48:37.746Z,1.50
2023-04-02T07:51:05.067Z,1.50
2023-04-02T07:53:34.470Z,1.35
2023-04-02T07:56:03.473Z,1.10
2023-04-02T07:58:32.043Z,1.50
2023-04-02T08:01:00.282Z,1.40
2023-04-02T08:03:27.867Z,1.40
2023-04-02T08:05:57.157Z,1.42
2023-04-02T08:08:25.045Z,1.52
2023-04-02T08:10:52.137Z,1.45
2023-04-02T08:13:19.204Z,1.48
2023-04-02T08:15:46.460Z,1.70
2023-04-02T08:18:13.267Z,1.55
2023-04-02T08:20:40.379Z,1.48
2023-04-02T08:23:15.419Z,1.85
2023-04-02T08:25:42.647Z,1.95
2023-04-02T08:28:09.547Z,1.80
2023-04-02T08:30:37.322Z,1.75
2023-04-02T08:33:04.553Z,1.83
2023-04-02T08:35:31.661Z,2.15
2023-04-02T08:37:59.171Z,1.60
2023-04-02T08:40:34.401Z,2.20
2023-04-02T08:43:28.856Z,1.73
2023-04-02T08:46:10.345Z,2.08
2023-04-02T08:48:42.616Z,2.10
2023-04-02T08:51:36.883Z,2.35
2023-04-02T08:54:13.605Z,1.60
2023-04-02T08:56:44.605Z,2.17
2023-04-02T08:59:37.787Z,1.70
2023-04-02T09:02:40.806Z,1.63
2023-04-02T09:05:16.048Z,1.65
2023-04-02T09:07:43.204Z,1.73
2023-04-02T09:10:17.305Z,1.80
2023-04-02T09:12:50.564Z,1.77
2023-04-02T09:15:34.156Z,1.60
2023-04-02T09:18:17.489Z,1.60
2023-04-02T09:20:44.922Z,1.92
2023-04-02T09:23:19.798Z,1.50
2023-04-02T09:26:03.646Z,1.77
2023-04-02T09:28:32.280Z,1.50
2023-04-02T09:31:37.798Z,1.60
2023-04-02T09:34:29.876Z,1.73
2023-04-02T09:36:57.569Z,2.30
2023-04-02T09:39:28.384Z,1.80
2023-04-02T09:42:05.485Z,2.17
2023-04-02T09:44:33.862Z,2.72
2023-04-02T09:47:07.006Z,2.20
2023-04-02T09:49:39.369Z,2.15
2023-04-02T09:52:18.094Z,1.80
2023-04-02T09:54:45.950Z,1.90
2023-04-02T09:57:25.131Z,2.17
2023-04-02T10:00:29.916Z,2.70
2023-04-02T10:03:23.133Z,2.50
2023-04-02T10:06:13.958Z,2.33
2023-04-02T10:08:43.191Z,1.83
2023-04-02T10:11:15.030Z,1.98
2023-04-02T10:13:59.994Z,2.13
2023-04-02T10:16:39.222Z,2.38
2023-04-02T10:19:29.056Z,2.40
2023-04-02T10:21:58.064Z,2.17
2023-04-02T10:24:28.414Z,2.17
2023-04-02T10:27:11.433Z,2.30
2023-04-02T10:30:02.190Z,2.40
2023-04-02T10:32:54.820Z,2.10
2023-04-02T10:35:33.180Z,2.83
2023-04-02T10:38:38.807Z,2.72
2023-04-02T10:41:21.207Z,2.25
2023-04-02T10:44:20.523Z,2.38
2023-04-02T10:46:47.892Z,2.40
2023-04-02T10:49:20.941Z,2.85
2023-04-02T10:51:53.291Z,2.40
2023-04-02T10:54:27.990Z,2.53
2023-04-02T10:57:00.692Z,2.15
2023-04-02T10:59:33.710Z,2.38
2023-04-02T11:02:06.722Z,2.50
2023-04-02T11:04:45.499Z,2.50
2023-04-02T11:07:23.783Z,2.45
2023-04-02T11:09:53.610Z,2.50
2023-04-02T11:12:29.498Z,2.03
2023-04-02T11:14:57.116Z,2.63
2023-04-02T11:17:24.890Z,2.10
2023-04-02T11:19:52.792Z,2.17
2023-04-02T11:22:25.969Z,1.80
2023-04-02T11:24:57.340Z,2.28
2023-04-02T11:27:31.403Z,1.60
2023-04-02T11:30:16.723Z,1.73
2023-04-02T11:32:47.398Z,1.95
2023-04-02T11:35:24.139Z,1.50
2023-04-02T11:37:51.294Z,1.10
2023-04-02T11:40:18.301Z,1.08
2023-04-02T11:42:47.446Z,1.25
2023-04-02T11:45:23.379Z,1.17
2023-04-02T11:48:03.775Z,1.10
2023-04-02T11:50:39.379Z,1.10
2023-04-02T11:53:22.872Z,1.00
2023-04-02T11:56:10.037Z,1.17
2023-04-02T11:59:21.326Z,0.80
2023-04-02T12:02:18.232Z,2.03
2023-04-02T12:05:04.528Z,1.67
2023-04-02T12:07:52.442Z,1.65
2023-04-02T12:10:51.506Z,2.03
2023-04-02T12:13:41.293Z,1.23
2023-04-02T12:16:13.086Z,1.25
2023-04-02T12:18:48.341Z,1.40
2023-04-02T12:21:18.055Z,1.40
2023-04-02T12:23:48.796Z,1.50
2023-04-02T12:26:24.615Z,1.00
2023-04-02T12:28:51.641Z,1.13
2023-04-02T12:31:22.291Z,0.75
2023-04-02T12:33:52.870Z,1.30
2023-04-02T12:36:23.034Z,1.77
2023-04-02T12:38:59.336Z,1.65
2023-04-02T12:41:32.311Z,1.92
2023-04-02T12:44:03.561Z,1.65
2023-04-02T12:46:32.151Z,1.30
2023-04-02T12:49:20.814Z,1.00
2023-04-02T12:51:48.797Z,1.10
2023-04-02T12:54:20.990Z,1.25
2023-04-02T12:56:49.460Z,1.35
2023-04-02T12:59:36.399Z,1.00
2023-04-02T13:02:20.152Z,1.40
2023-04-02T13:04:52.709Z,1.40
2023-04-02T13:07:22.621Z,1.20
2023-04-02T13:09:55.194Z,1.65
2023-04-02T13:12:35.495Z,1.33
2023-04-02T13:15:28.302Z,1.33
2023-04-02T13:18:13.272Z,1.40
2023-04-02T13:20:42.127Z,1.88
2023-04-02T13:23:31.512Z,1.63
2023-04-02T13:26:08.890Z,1.58
2023-04-02T13:28:36.044Z,1.40
2023-04-02T13:31:03.121Z,1.38
2023-04-02T13:33:30.019Z,1.35
2023-04-02T13:35:57.128Z,0.98
2023-04-02T13:38:23.910Z,1.05
2023-04-02T13:40:51.745Z,0.80
2023-04-02T13:43:20.640Z,0.75
2023-04-02T13:45:51.676Z,0.50
2023-04-02T13:48:18.740Z,0.95
2023-04-02T13:50:46.687Z,1.75
2023-04-02T13:53:25.578Z,0.90
2023-04-02T13:55:53.573Z,0.60
2023-04-02T13:58:20.476Z,0.60
2023-04-02T14:00:47.912Z,0.50
2023-04-02T14:03:22.415Z,0.60
2023-04-02T14:06:08.425Z,0.40
2023-04-02T14:08:44.260Z,0.50
2023-04-02T14:11:11.259Z,0.70
2023-04-02T14:13:59.273Z,0.50
2023-04-02T14:16:44.569Z,0.60
2023-04-02T14:19:29.870Z,0.65
2023-04-02T14:22:06.180Z,0.80
2023-04-02T14:25:06.624Z,0.70
2023-04-02T14:27:45.961Z,0.82
2023-04-02T14:30:27.370Z,0.60
2023-04-02T14:33:19.358Z,0.65
2023-04-02T14:35:50.853Z,0.90
2023-04-02T14:38:43.933Z,1.15
2023-04-02T14:41:22.131Z,1.60
2023-04-02T14:43:58.191Z,1.70
2023-04-02T14:46:27.413Z,2.20
2023-04-02T14:48:57.532Z,1.63
2023-04-02T14:51:38.154Z,1.70
2023-04-02T14:54:23.680Z,1.40
2023-04-02T14:57:21.529Z,1.02
2023-04-02T15:00:04.079Z,1.38
2023-04-02T15:02:53.060Z,1.30
2023-04-02T15:05:48.614Z,1.50
2023-04-02T15:08:29.672Z,1.60
2023-04-02T15:11:06.585Z,1.90
2023-04-02T15:14:13.653Z,2.42
2023-04-02T15:16:41.635Z,1.33
2023-04-02T15:19:18.925Z,1.52
2023-04-02T15:22:08.731Z,1.77
2023-04-02T15:24:57.752Z,1.80
2023-04-02T15:27:46.920Z,2.30
2023-04-02T15:30:43.050Z,2.53
2023-04-02T15:33:35.967Z,2.13
2023-04-02T15:36:33.281Z,1.48
2023-04-02T15:39:15.576Z,1.75
2023-04-02T15:42:06.194Z,2.40
2023-04-02T15:44:36.561Z,1.75
2023-04-02T15:47:03.298Z,2.78
2023-04-02T15:50:01.496Z,1.80
2023-04-02T15:52:43.131Z,2.53
2023-04-02T15:55:33.146Z,2.15
2023-04-02T15:58:08.732Z,2.70
2023-04-02T16:01:09.137Z,2.05
2023-04-02T16:03:53.054Z,1.92
2023-04-02T16:06:25.712Z,1.70
2023-04-02T16:09:30.950Z,1.55
2023-04-02T16:12:13.916Z,1.77
2023-04-02T16:14:45.477Z,1.75
2023-04-02T16:17:24.919Z,1.80
2023-04-02T16:19:57.173Z,2.13
2023-04-02T16:22:30.500Z,2.25
2023-04-02T16:25:19.563Z,2.53
2023-04-02T16:27:55.876Z,2.72
2023-04-02T16:30:28.790Z,2.33
2023-04-02T16:33:03.276Z,2.88
2023-04-02T16:35:48.622Z,2.53
2023-04-02T16:38:48.071Z,2.67
2023-04-02T16:41:35.292Z,2.60
2023-04-02T16:44:20.699Z,3.00
2023-04-02T16:47:02.559Z,2.92
2023-04-02T16:49:38.515Z,2.75
2023-04-02T16:52:35.405Z,2.67
2023-04-02T16:55:09.648Z,2.20
2023-04-02T16:57:54.730Z,2.47
2023-04-02T17:00:24.968Z,2.28
2023-04-02T17:03:10.654Z,2.30
2023-04-02T17:05:58.290Z,2.53
2023-04-02T17:08:29.792Z,2.05
2023-04-02T17:11:08.012Z,2.65
2023-04-02T17:13:46.922Z,2.35
2023-04-02T17:16:20.722Z,2.30
2023-04-02T17:18:51.391Z,2.47
2023-04-02T17:21:26.407Z,2.03
2023-04-02T17:24:06.430Z,1.35
2023-04-02T17:26:37.649Z,1.30
2023-04-02T17:29:09.459Z,1.00
2023-04-02T17:31:38.029Z,0.60
2023-04-02T17:34:14.039Z,0.80
2023-04-02T17:36:48.981Z,0.90
2023-04-02T17:39:20.519Z,0.85
2023-04-02T17:42:06.086Z,1.23
2023-04-02T17:44:35.642Z,0.80
2023-04-02T17:47:17.860Z,1.00
2023-04-02T17:50:04.898Z,1.10
2023-04-02T17:52:56.727Z,1.30
2023-04-02T17:55:40.844Z,1.52
2023-04-02T17:58:17.046Z,1.42
2023-04-02T18:00:59.665Z,1.77
2023-04-02T18:03:35.671Z,1.60
2023-04-02T18:06:18.826Z,1.67
2023-04-02T18:09:01.981Z,2.28
2023-04-02T18:11:55.291Z,1.77
2023-04-02T18:14:33.454Z,2.20
2023-04-02T18:17:30.405Z,2.15
2023-04-02T18:20:19.487Z,2.80
2023-04-02T18:23:04.009Z,2.80
2023-04-02T18:25:54.218Z,2.72
2023-04-02T18:28:31.884Z,2.63
2023-04-02T18:31:24.323Z,2.67
2023-04-02T18:34:06.385Z,3.22
2023-04-02T18:36:45.612Z,2.25
2023-04-02T18:39:17.308Z,2.50
2023-04-02T18:42:02.967Z,2.92
2023-04-02T18:44:29.801Z,3.17
2023-04-02T18:47:14.241Z,2.95
2023-04-02T18:49:49.580Z,2.92
2023-04-02T18:52:18.619Z,3.17
2023-04-02T18:55:07.306Z,2.47
2023-04-02T18:57:39.019Z,3.15
2023-04-02T19:00:31.339Z,3.20
2023-04-02T19:03:18.589Z,3.25
2023-04-02T19:05:56.632Z,3.38
2023-04-02T19:08:32.978Z,3.10
2023-04-02T19:11:05.261Z,2.75
2023-04-02T19:13:32.378Z,2.70
2023-04-02T19:16:17.766Z,3.65
2023-04-02T19:19:12.065Z,3.05
2023-04-02T19:22:03.274Z,3.00
2023-04-02T19:24:49.079Z,3.58
2023-04-02T19:27:33.870Z,2.85
2023-04-02T19:30:16.810Z,3.47
2023-04-02T19:33:11.067Z,3.65
2023-04-02T19:36:10.447Z,3.83
2023-04-02T19:38:46.426Z,3.03
2023-04-02T19:41:13.461Z,3.45
2023-04-02T19:43:40.389Z,2.90
2023-04-02T19:46:07.649Z,3.20
2023-04-02T19:48:46.893Z,3.55
2023-04-02T19:51:13.983Z,2.92
2023-04-02T19:53:42.157Z,3.60
2023-04-02T19:56:09.302Z,3.13
2023-04-02T19:58:36.334Z,3.78
2023-04-02T20:01:03.806Z,3.53
2023-04-02T20:03:31.857Z,2.95
2023-04-02T20:06:00.003Z,3.33
2023-04-02T20:08:28.019Z,3.85
2023-04-02T20:10:56.084Z,3.20
2023-04-02T20:13:22.889Z,2.97
2023-04-02T20:15:51.408Z,2.90
2023-04-02T20:18:20.250Z,3.13
2023-04-02T20:20:48.971Z,3.70
2023-04-02T20:23:17.160Z,3.13
2023-04-02T20:25:53.063Z,3.90
2023-04-02T20:28:23.649Z,3.67
2023-04-02T20:30:51.517Z,2.88
2023-04-02T20:33:21.403Z,4.18
2023-04-02T20:35:50.677Z,3.28
2023-04-02T20:38:18.237Z,3.60
2023-04-02T20:40:52.074Z,3.15
2023-04-02T20:43:18.979Z,2.90
2023-04-02T20:45:55.216Z,2.70
2023-04-02T20:48:25.818Z,3.08
2023-04-02T20:50:53.360Z,2.85
2023-04-02T20:53:20.976Z,3.30
2023-04-02T20:55:48.064Z,2.67
2023-04-02T20:58:17.148Z,2.95
2023-04-02T21:00:45.346Z,2.90
2023-04-02T21:03:12.628Z,2.60
2023-04-02T21:05:47.180Z,2.63
2023-04-02T21:08:17.016Z,2.95
2023-04-02T21:10:44.050Z,2.75
2023-04-02T21:13:10.813Z,2.88
2023-04-02T21:15:42.994Z,2.60
2023-04-02T21:18:09.941Z,3.35
2023-04-02T21:20:37.058Z,3.28
2023-04-02T21:23:03.864Z,3.78
2023-04-02T21:25:30.956Z,3.33
2023-04-02T21:27:57.772Z,2.92
2023-04-02T21:30:24.857Z,2.88
2023-04-02T21:32:51.717Z,2.60
2023-04-02T21:35:18.827Z,2.60
2023-04-02T21:37:45.708Z,2.38
2023-04-02T21:40:12.817Z,2.13
2023-04-02T21:42:39.616Z,2.38
2023-04-02T21:45:07.054Z,2.58
2023-04-02T21:47:33.929Z,2.17
2023-04-02T21:50:01.051Z,2.78
2023-04-02T21:52:27.871Z,2.97
2023-04-02T21:54:54.969Z,2.83
2023-04-02T21:57:21.770Z,3.05
2023-04-02T21:59:48.901Z,3.20
2023-04-02T22:02:15.797Z,2.95
2023-04-02T22:04:42.955Z,3.00
2023-04-02T22:07:09.812Z,2.83
2023-04-02T22:09:36.860Z,2.80
2023-04-02T22:12:03.840Z,2.80
2023-04-02T22:14:31.002Z,3.17
2023-04-02T22:17:00.786Z,3.45
2023-04-02T22:19:28.126Z,3.03
2023-04-02T22:21:56.317Z,3.78
2023-04-02T22:24:23.390Z,3.10
2023-04-02T22:26:51.028Z,3.28
2023-04-02T22:29:18.119Z,3.55
2023-04-02T22:31:45.151Z,3.10
2023-04-02T22:34:12.630Z,3.00
2023-04-02T22:36:39.498Z,3.70
2023-04-02T22:39:10.247Z,2.88
2023-04-02T22:41:37.220Z,3.78
2023-04-02T22:44:04.582Z,2.83
2023-04-02T22:46:31.704Z,3.25
2023-04-02T22:48:59.175Z,3.33
2023-04-02T22:51:28.044Z,3.20
2023-04-02T22:53:57.960Z,3.15
2023-04-02T22:56:27.606Z,2.88
2023-04-02T22:58:54.883Z,2.95
2023-04-02T23:01:27.730Z,3.20
2023-04-02T23:03:55.930Z,3.65
2023-04-02T23:06:24.218Z,3.15
2023-04-02T23:08:52.250Z,3.45
2023-04-02T23:11:24.376Z,3.55
2023-04-02T23:13:53.636Z,3.83
2023-04-02T23:16:21.401Z,3.38
2023-04-02T23:18:49.040Z,3.00
2023-04-02T23:21:16.881Z,3.38
2023-04-02T23:23:44.451Z,3.28
2023-04-02T23:26:14.036Z,3.42
2023-04-02T23:28:41.855Z,3.30
2023-04-02T23:31:13.453Z,3.25
2023-04-02T23:33:40.603Z,3.83
2023-04-02T23:36:13.643Z,3.75
2023-04-02T23:38:40.898Z,3.67
2023-04-02T23:41:07.724Z,3.42
2023-04-02T23:43:34.784Z,3.85
2023-04-02T23:46:01.931Z,3.60
2023-04-02T23:48:29.024Z,3.97
2023-04-02T23:50:55.825Z,4.07
2023-04-02T23:53:23.193Z,3.70
2023-04-02T23:55:49.988Z,3.63
2023-04-02T23:58:17.141Z,3.65
